createdAt,value
2023-03-18T00:00:10.308Z,101183.75
2023-03-18T00:01:13.839Z,101177.03
2023-03-18T00:02:18.693Z,101170.41
2023-03-18T00:03:23.157Z,101173.88
2023-03-18T00:04:26.365Z,101180.25
2023-03-18T00:05:31.223Z,101177.28
2023-03-18T00:06:37.149Z,101181.00
2023-03-18T00:07:41.700Z,101169.06
2023-03-18T00:08:47.735Z,101167.78
2023-03-18T00:09:53.002Z,101167.41
2023-03-18T00:10:55.441Z,101168.16
2023-03-18T00:11:59.584Z,101164.03
2023-03-18T00:13:04.652Z,101169.41
2023-03-18T00:14:08.894Z,101167.06
2023-03-18T00:15:13.430Z,101162.63
2023-03-18T00:16:17.537Z,101169.91
2023-03-18T00:17:20.934Z,101167.06
2023-03-18T00:18:24.929Z,101160.53
2023-03-18T00:19:27.492Z,101165.59
2023-03-18T00:20:38.950Z,101171.59
2023-03-18T00:21:41.590Z,101170.69
2023-03-18T00:22:45.592Z,101164.31
2023-03-18T00:23:54.404Z,101166.84
2023-03-18T00:24:56.834Z,101169.63
2023-03-18T00:26:01.522Z,101170.06
2023-03-18T00:27:04.640Z,101171.25
2023-03-18T00:28:08.619Z,101161.22
2023-03-18T00:29:11.401Z,101160.78
2023-03-18T00:30:15.638Z,101163.38
2023-03-18T00:31:19.005Z,101163.69
2023-03-18T00:32:22.577Z,101158.94
2023-03-18T00:33:25.075Z,101161.22
2023-03-18T00:34:29.176Z,101159.66
2023-03-18T00:35:31.955Z,101162.66
2023-03-18T00:36:36.529Z,101159.66
2023-03-18T00:37:42.766Z,101160.47
2023-03-18T00:38:51.240Z,101163.97
2023-03-18T00:39:56.088Z,101162.72
2023-03-18T00:41:11.824Z,101157.25
2023-03-18T00:42:15.009Z,101165.44
2023-03-18T00:43:19.098Z,101166.25
2023-03-18T00:44:21.922Z,101161.94
2023-03-18T00:45:26.031Z,101164.03
2023-03-18T00:46:30.946Z,101157.69
2023-03-18T00:47:35.966Z,101152.09
2023-03-18T00:48:38.785Z,101150.13
2023-03-18T00:49:42.346Z,101152.19
2023-03-18T00:50:45.286Z,101154.72
2023-03-18T00:51:49.181Z,101149.22
2023-03-18T00:52:52.222Z,101156.72
2023-03-18T00:53:57.653Z,101151.69
2023-03-18T00:55:02.198Z,101148.44
2023-03-18T00:56:06.055Z,101145.31
2023-03-18T00:57:11.003Z,101145.47
2023-03-18T00:58:14.503Z,101141.56
2023-03-18T00:59:17.060Z,101140.22
2023-03-18T01:00:21.643Z,101144.97
2023-03-18T01:01:25.963Z,101138.94
2023-03-18T01:02:30.140Z,101133.81
2023-03-18T01:03:34.202Z,101137.34
2023-03-18T01:04:38.374Z,101132.69
2023-03-18T01:05:41.042Z,101136.31
2023-03-18T01:06:45.278Z,101128.97
2023-03-18T01:07:48.321Z,101132.63
2023-03-18T01:08:52.284Z,101136.13
2023-03-18T01:09:55.128Z,101139.25
2023-03-18T01:11:01.239Z,101138.47
2023-03-18T01:12:03.937Z,101134.84
2023-03-18T01:13:08.147Z,101133.50
2023-03-18T01:14:10.862Z,101132.63
2023-03-18T01:15:17.866Z,101140.13
2023-03-18T01:16:21.210Z,101134.75
2023-03-18T01:17:24.974Z,101130.41
2023-03-18T01:18:28.012Z,101137.72
2023-03-18T01:19:31.811Z,101137.22
2023-03-18T01:20:34.621Z,101136.91
2023-03-18T01:21:38.271Z,101132.31
2023-03-18T01:22:41.614Z,101129.16
2023-03-18T01:23:45.901Z,101126.09
2023-03-18T01:24:48.325Z,101132.22
2023-03-18T01:25:52.676Z,101125.47
2023-03-18T01:26:57.045Z,101120.78
2023-03-18T01:28:00.891Z,101125.47
2023-03-18T01:29:04.231Z,101119.06
2023-03-18T01:30:10.118Z,101119.47
2023-03-18T01:31:12.921Z,101127.38
2023-03-18T01:32:17.052Z,101118.41
2023-03-18T01:33:20.133Z,101112.50
2023-03-18T01:34:23.986Z,101117.66
2023-03-18T01:35:27.372Z,101123.44
2023-03-18T01:36:31.148Z,101111.91
2023-03-18T01:37:33.836Z,101115.34
2023-03-18T01:38:38.095Z,101118.50
2023-03-18T01:39:41.618Z,101122.81
2023-03-18T01:40:45.424Z,101113.47
2023-03-18T01:41:49.199Z,101114.81
2023-03-18T01:42:58.803Z,101110.22
2023-03-18T01:44:02.337Z,101113.06
2023-03-18T01:45:19.850Z,101106.47
2023-03-18T01:46:35.790Z,101107.28
2023-03-18T01:47:39.890Z,101111.06
2023-03-18T01:48:42.786Z,101107.88
2023-03-18T01:49:50.178Z,101111.06
2023-03-18T01:50:57.147Z,101112.06
2023-03-18T01:52:04.063Z,101108.75
2023-03-18T01:53:09.208Z,101103.38
2023-03-18T01:54:14.421Z,101105.91
2023-03-18T01:55:20.380Z,101105.16
2023-03-18T01:56:24.112Z,101104.41
2023-03-18T01:57:29.032Z,101112.78
2023-03-18T01:58:36.922Z,101100.66
2023-03-18T01:59:43.400Z,101096.16
2023-03-18T02:00:51.859Z,101094.34
2023-03-18T02:01:59.747Z,101092.75
2023-03-18T02:03:02.297Z,101090.66
2023-03-18T02:04:09.419Z,101090.50
2023-03-18T02:05:17.807Z,101090.28
2023-03-18T02:06:21.672Z,101079.00
2023-03-18T02:07:28.172Z,101086.94
2023-03-18T02:08:31.730Z,101087.91
2023-03-18T02:09:34.500Z,101091.44
2023-03-18T02:10:39.980Z,101090.31
2023-03-18T02:11:46.244Z,101091.44
2023-03-18T02:12:52.948Z,101093.03
2023-03-18T02:13:57.789Z,101084.16
2023-03-18T02:15:03.462Z,101094.22
2023-03-18T02:16:10.708Z,101091.06
2023-03-18T02:17:18.068Z,101094.59
2023-03-18T02:18:24.906Z,101089.56
2023-03-18T02:19:49.186Z,101086.94
2023-03-18T02:21:05.427Z,101091.34
2023-03-18T02:22:18.357Z,101081.91
2023-03-18T02:23:30.909Z,101086.94
2023-03-18T02:24:42.216Z,101080.69
2023-03-18T02:25:53.517Z,101085.28
2023-03-18T02:27:01.779Z,101078.53
2023-03-18T02:28:11.429Z,101070.63
2023-03-18T02:29:17.162Z,101079.03
2023-03-18T02:30:24.864Z,101073.00
2023-03-18T02:31:28.628Z,101068.38
2023-03-18T02:32:35.872Z,101058.91
2023-03-18T02:33:42.101Z,101073.91
2023-03-18T02:34:46.833Z,101068.59
2023-03-18T02:35:53.598Z,101067.81
2023-03-18T02:36:57.447Z,101073.50
2023-03-18T02:38:00.303Z,101067.16
2023-03-18T02:39:05.057Z,101064.81
2023-03-18T02:40:16.542Z,101064.34
2023-03-18T02:41:23.182Z,101068.19
2023-03-18T02:42:29.876Z,101054.31
2023-03-18T02:43:35.692Z,101053.63
2023-03-18T02:44:48.355Z,101045.84
2023-03-18T02:46:31.202Z,101044.84
2023-03-18T02:47:34.632Z,101041.97
2023-03-18T02:48:42.544Z,101046.06
2023-03-18T02:49:45.630Z,101043.00
2023-03-18T02:50:50.339Z,101038.78
2023-03-18T02:51:52.940Z,101036.75
2023-03-18T02:52:56.918Z,101039.03
2023-03-18T02:54:03.941Z,101038.38
2023-03-18T02:55:08.247Z,101021.84
2023-03-18T02:56:11.072Z,101027.84
2023-03-18T02:57:14.706Z,101034.75
2023-03-18T02:58:17.208Z,101029.03
2023-03-18T02:59:22.890Z,101036.88
2023-03-18T03:00:25.660Z,101036.31
2023-03-18T03:01:30.212Z,101041.94
2023-03-18T03:02:33.206Z,101048.09
2023-03-18T03:03:37.476Z,101050.88
2023-03-18T03:04:40.075Z,101047.47
2023-03-18T03:05:44.251Z,101052.66
2023-03-18T03:06:47.380Z,101066.50
2023-03-18T03:07:50.980Z,101064.69
2023-03-18T03:08:53.926Z,101064.06
2023-03-18T03:09:57.499Z,101061.19
2023-03-18T03:10:59.890Z,101057.69
2023-03-18T03:12:03.358Z,101058.53
2023-03-18T03:13:07.606Z,101061.28
2023-03-18T03:14:12.540Z,101053.63
2023-03-18T03:15:16.513Z,101055.38
2023-03-18T03:16:20.643Z,101055.03
2023-03-18T03:17:24.352Z,101052.88
2023-03-18T03:18:28.654Z,101048.31
2023-03-18T03:19:31.905Z,101047.22
2023-03-18T03:20:37.838Z,101043.22
2023-03-18T03:21:40.388Z,101049.84
2023-03-18T03:22:43.964Z,101046.59
2023-03-18T03:23:47.892Z,101043.59
2023-03-18T03:24:51.205Z,101046.25
2023-03-18T03:25:53.730Z,101048.84
2023-03-18T03:26:57.352Z,101053.59
2023-03-18T03:28:00.530Z,101050.88
2023-03-18T03:29:05.799Z,101057.44
2023-03-18T03:30:11.600Z,101060.19
2023-03-18T03:31:18.079Z,101050.47
2023-03-18T03:32:23.713Z,101057.00
2023-03-18T03:33:28.247Z,101045.97
2023-03-18T03:34:31.299Z,101052.94
2023-03-18T03:35:36.116Z,101055.16
2023-03-18T03:36:38.639Z,101054.69
2023-03-18T03:37:42.726Z,101055.22
2023-03-18T03:38:46.609Z,101057.13
2023-03-18T03:39:49.260Z,101055.19
2023-03-18T03:40:54.392Z,101050.53
2023-03-18T03:41:57.276Z,101049.78
2023-03-18T03:43:01.104Z,101054.63
2023-03-18T03:44:06.793Z,101058.75
2023-03-18T03:45:12.596Z,101051.44
2023-03-18T03:46:16.832Z,101056.22
2023-03-18T03:47:21.458Z,101061.72
2023-03-18T03:48:24.121Z,101052.69
2023-03-18T03:49:27.485Z,101056.50
2023-03-18T03:50:30.545Z,101057.44
2023-03-18T03:51:34.496Z,101057.53
2023-03-18T03:52:39.033Z,101056.22
2023-03-18T03:53:43.652Z,101060.66
2023-03-18T03:54:46.088Z,101059.88
2023-03-18T03:55:49.745Z,101066.09
2023-03-18T03:56:52.459Z,101058.34
2023-03-18T03:57:55.931Z,101068.00
2023-03-18T03:58:58.798Z,101069.00
2023-03-18T04:00:02.517Z,101067.31
2023-03-18T04:01:06.733Z,101068.44
2023-03-18T04:02:12.612Z,101063.53
2023-03-18T04:03:15.317Z,101067.47
2023-03-18T04:04:18.980Z,101065.94
2023-03-18T04:05:23.963Z,101072.22
2023-03-18T04:06:27.524Z,101074.38
2023-03-18T04:07:30.363Z,101073.91
2023-03-18T04:08:34.223Z,101080.41
2023-03-18T04:09:36.969Z,101083.78
2023-03-18T04:10:40.574Z,101076.94
2023-03-18T04:11:44.952Z,101082.16
2023-03-18T04:12:49.948Z,101075.25
2023-03-18T04:13:52.564Z,101075.00
2023-03-18T04:14:56.210Z,101064.03
2023-03-18T04:15:58.864Z,101074.50
2023-03-18T04:17:03.361Z,101076.34
2023-03-18T04:18:08.480Z,101071.41
2023-03-18T04:19:12.952Z,101074.75
2023-03-18T04:20:17.338Z,101073.47
2023-03-18T04:21:21.331Z,101077.09
2023-03-18T04:22:24.648Z,101073.22
2023-03-18T04:23:28.166Z,101075.88
2023-03-18T04:24:30.948Z,101066.19
2023-03-18T04:25:35.702Z,101061.75
2023-03-18T04:26:38.416Z,101063.41
2023-03-18T04:27:42.407Z,101064.25
2023-03-18T04:28:44.944Z,101066.81
2023-03-18T04:29:48.666Z,101060.56
2023-03-18T04:30:51.138Z,101064.56
2023-03-18T04:31:54.844Z,101066.06
2023-03-18T04:32:57.458Z,101059.41
2023-03-18T04:34:02.926Z,101056.38
2023-03-18T04:35:06.515Z,101058.25
2023-03-18T04:36:10.753Z,101063.53
2023-03-18T04:37:14.890Z,101052.75
2023-03-18T04:38:17.681Z,101056.97
2023-03-18T04:39:21.331Z,101049.50
2023-03-18T04:40:24.584Z,101055.72
2023-03-18T04:41:28.575Z,101056.94
2023-03-18T04:42:31.449Z,101050.59
2023-03-18T04:43:36.041Z,101056.25
2023-03-18T04:44:38.992Z,101051.22
2023-03-18T04:45:42.522Z,101046.09
2023-03-18T04:46:45.346Z,101056.19
2023-03-18T04:47:49.654Z,101050.97
2023-03-18T04:48:52.390Z,101047.97
2023-03-18T04:49:57.567Z,101055.22
2023-03-18T04:51:00.799Z,101054.75
2023-03-18T04:52:04.361Z,101053.16
2023-03-18T04:53:06.830Z,101055.88
2023-03-18T04:54:11.316Z,101052.34
2023-03-18T04:55:16.744Z,101054.88
2023-03-18T04:56:21.210Z,101049.78
2023-03-18T04:57:23.726Z,101050.81
2023-03-18T04:58:27.884Z,101046.13
2023-03-18T04:59:30.451Z,101048.78
2023-03-18T05:00:34.494Z,101054.22
2023-03-18T05:01:37.114Z,101053.00
2023-03-18T05:02:41.199Z,101043.16
2023-03-18T05:03:43.739Z,101050.94
2023-03-18T05:04:47.436Z,101051.81
2023-03-18T05:05:51.691Z,101051.34
2023-03-18T05:06:55.370Z,101046.88
2023-03-18T05:07:58.096Z,101051.19
2023-03-18T05:09:02.304Z,101055.16
2023-03-18T05:10:07.404Z,101050.63
2023-03-18T05:11:10.090Z,101046.41
2023-03-18T05:12:15.599Z,101051.91
2023-03-18T05:13:18.785Z,101047.97
2023-03-18T05:14:23.035Z,101044.81
2023-03-18T05:15:26.101Z,101050.47
2023-03-18T05:16:30.332Z,101059.19
2023-03-18T05:17:32.772Z,101048.97
2023-03-18T05:18:36.356Z,101058.13
2023-03-18T05:19:38.983Z,101054.53
2023-03-18T05:20:42.626Z,101059.28
2023-03-18T05:21:46.655Z,101060.16
2023-03-18T05:22:50.325Z,101059.19
2023-03-18T05:23:52.998Z,101063.34
2023-03-18T05:24:56.582Z,101056.75
2023-03-18T05:25:59.144Z,101059.38
2023-03-18T05:27:02.971Z,101058.06
2023-03-18T05:28:06.646Z,101058.53
2023-03-18T05:29:10.856Z,101063.56
2023-03-18T05:30:15.678Z,101063.13
2023-03-18T05:31:19.437Z,101070.31
2023-03-18T05:32:24.177Z,101069.31
2023-03-18T05:33:26.934Z,101075.75
2023-03-18T05:34:30.627Z,101072.72
2023-03-18T05:35:33.727Z,101076.88
2023-03-18T05:36:37.653Z,101074.38
2023-03-18T05:37:41.670Z,101074.47
2023-03-18T05:38:45.473Z,101081.31
2023-03-18T05:39:50.134Z,101081.59
2023-03-18T05:40:53.820Z,101083.22
2023-03-18T05:41:56.825Z,101086.13
2023-03-18T05:43:00.386Z,101076.00
2023-03-18T05:44:02.829Z,101079.91
2023-03-18T05:45:07.619Z,101085.28
2023-03-18T05:46:10.687Z,101080.25
2023-03-18T05:47:14.344Z,101079.63
2023-03-18T05:48:17.733Z,101082.41
2023-03-18T05:49:23.478Z,101081.41
2023-03-18T05:50:30.681Z,101079.66
2023-03-18T05:51:34.222Z,101079.53
2023-03-18T05:52:36.841Z,101079.72
2023-03-18T05:53:42.532Z,101076.97
2023-03-18T05:54:45.130Z,101084.91
2023-03-18T05:55:48.891Z,101081.25
2023-03-18T05:56:52.941Z,101080.59
2023-03-18T05:57:56.678Z,101084.88
2023-03-18T05:58:59.311Z,101086.13
2023-03-18T06:00:03.558Z,101087.19
2023-03-18T06:01:07.423Z,101089.28
2023-03-18T06:02:11.880Z,101088.63
2023-03-18T06:03:14.292Z,101079.59
2023-03-18T06:04:19.400Z,101081.69
2023-03-18T06:05:23.366Z,101083.16
2023-03-18T06:06:26.863Z,101083.69
2023-03-18T06:07:29.312Z,101074.84
2023-03-18T06:08:33.234Z,101073.44
2023-03-18T06:09:37.234Z,101071.94
2023-03-18T06:10:41.678Z,101076.16
2023-03-18T06:11:45.683Z,101077.53
2023-03-18T06:12:49.491Z,101076.97
2023-03-18T06:13:52.515Z,101074.41
2023-03-18T06:14:56.633Z,101074.78
2023-03-18T06:16:00.521Z,101072.50
2023-03-18T06:17:04.045Z,101071.72
2023-03-18T06:18:06.627Z,101081.94
2023-03-18T06:19:10.932Z,101083.75
2023-03-18T06:20:16.162Z,101085.94
2023-03-18T06:21:19.958Z,101088.78
2023-03-18T06:22:22.614Z,101085.72
2023-03-18T06:23:26.274Z,101086.00
2023-03-18T06:24:28.880Z,101091.75
2023-03-18T06:25:34.257Z,101092.38
2023-03-18T06:26:37.059Z,101094.16
2023-03-18T06:27:41.302Z,101090.38
2023-03-18T06:28:44.808Z,101092.13
2023-03-18T06:29:48.376Z,101096.81
2023-03-18T06:30:50.900Z,101096.44
2023-03-18T06:31:54.647Z,101094.19
2023-03-18T06:32:57.374Z,101099.81
2023-03-18T06:34:01.587Z,101101.78
2023-03-18T06:35:05.460Z,101103.66
2023-03-18T06:36:10.823Z,101095.97
2023-03-18T06:37:13.256Z,101093.03
2023-03-18T06:38:17.020Z,101093.03
2023-03-18T06:39:20.200Z,101099.25
2023-03-18T06:40:24.216Z,101101.91
2023-03-18T06:41:28.415Z,101099.84
2023-03-18T06:42:31.945Z,101097.84
2023-03-18T06:43:34.388Z,101103.56
2023-03-18T06:44:38.000Z,101101.34
2023-03-18T06:45:40.818Z,101101.59
2023-03-18T06:46:44.408Z,101104.53
2023-03-18T06:47:48.144Z,101108.03
2023-03-18T06:48:51.800Z,101111.41
2023-03-18T06:49:55.545Z,101109.28
2023-03-18T06:50:59.721Z,101108.38
2023-03-18T06:52:02.704Z,101110.66
2023-03-18T06:53:06.492Z,101106.53
2023-03-18T06:54:09.860Z,101111.97
2023-03-18T06:55:13.566Z,101105.09
2023-03-18T06:56:16.698Z,101110.38
2023-03-18T06:57:21.896Z,101106.47
2023-03-18T06:58:24.957Z,101104.22
2023-03-18T06:59:28.464Z,101103.38
2023-03-18T07:00:32.068Z,101104.06
2023-03-18T07:01:36.265Z,101102.53
2023-03-18T07:02:39.737Z,101104.63
2023-03-18T07:03:43.767Z,101099.50
2023-03-18T07:04:46.562Z,101108.56
2023-03-18T07:05:51.177Z,101108.53
2023-03-18T07:06:53.810Z,101105.72
2023-03-18T07:07:57.499Z,101106.16
2023-03-18T07:09:01.410Z,101104.72
2023-03-18T07:10:06.032Z,101107.00
2023-03-18T07:11:08.524Z,101102.72
2023-03-18T07:12:14.013Z,101107.59
2023-03-18T07:13:19.339Z,101105.56
2023-03-18T07:14:23.230Z,101107.03
2023-03-18T07:15:26.752Z,101109.69
2023-03-18T07:16:30.976Z,101113.69
2023-03-18T07:17:33.603Z,101115.28
2023-03-18T07:18:37.739Z,101117.00
2023-03-18T07:19:40.251Z,101118.09
2023-03-18T07:20:43.777Z,101117.63
2023-03-18T07:21:46.562Z,101123.97
2023-03-18T07:22:51.586Z,101121.91
2023-03-18T07:23:55.604Z,101127.47
2023-03-18T07:24:59.447Z,101130.56
2023-03-18T07:26:02.270Z,101132.63
2023-03-18T07:27:06.977Z,101136.25
2023-03-18T07:28:09.474Z,101130.47
2023-03-18T07:29:14.424Z,101131.06
2023-03-18T07:30:18.140Z,101135.59
2023-03-18T07:31:21.675Z,101130.88
2023-03-18T07:32:24.334Z,101134.59
2023-03-18T07:33:28.279Z,101140.38
2023-03-18T07:34:31.023Z,101147.50
2023-03-18T07:35:34.691Z,101149.78
2023-03-18T07:36:37.496Z,101148.31
2023-03-18T07:37:41.807Z,101153.34
2023-03-18T07:38:44.690Z,101156.38
2023-03-18T07:39:48.847Z,101149.91
2023-03-18T07:40:51.527Z,101159.38
2023-03-18T07:41:55.070Z,101157.56
2023-03-18T07:42:57.508Z,101156.53
2023-03-18T07:44:01.175Z,101157.59
2023-03-18T07:45:05.772Z,101153.81
2023-03-18T07:46:09.483Z,101157.31
2023-03-18T07:47:12.390Z,101155.16
2023-03-18T07:48:15.887Z,101157.84
2023-03-18T07:49:18.816Z,101156.47
2023-03-18T07:50:22.797Z,101153.31
2023-03-18T07:51:25.241Z,101160.94
2023-03-18T07:52:29.626Z,101157.28
2023-03-18T07:53:34.071Z,101163.63
2023-03-18T07:54:36.852Z,101166.78
2023-03-18T07:55:41.186Z,101164.38
2023-03-18T07:56:44.914Z,101166.78
2023-03-18T07:57:49.329Z,101167.47
2023-03-18T07:58:51.925Z,101173.66
2023-03-18T07:59:56.357Z,101163.03
2023-03-18T08:01:00.570Z,101175.13
2023-03-18T08:02:05.116Z,101175.44
2023-03-18T08:03:07.600Z,101180.19
2023-03-18T08:04:11.482Z,101185.28
2023-03-18T08:05:14.886Z,101175.28
2023-03-18T08:06:20.580Z,101174.84
2023-03-18T08:07:24.850Z,101175.16
2023-03-18T08:08:28.482Z,101180.41
2023-03-18T08:09:31.024Z,101181.00
2023-03-18T08:10:35.777Z,101176.53
2023-03-18T08:11:39.917Z,101183.91
2023-03-18T08:12:52.624Z,101189.97
2023-03-18T08:13:55.891Z,101191.56
2023-03-18T08:15:00.085Z,101192.97
2023-03-18T08:16:04.399Z,101189.47
2023-03-18T08:17:09.103Z,101193.25
2023-03-18T08:18:11.597Z,101188.88
2023-03-18T08:19:15.478Z,101186.53
2023-03-18T08:20:18.333Z,101177.91
2023-03-18T08:21:21.855Z,101180.00
2023-03-18T08:22:25.906Z,101188.44
2023-03-18T08:23:30.279Z,101185.81
2023-03-18T08:24:33.359Z,101179.22
2023-03-18T08:25:37.034Z,101184.50
2023-03-18T08:26:39.788Z,101187.91
2023-03-18T08:27:43.890Z,101188.72
2023-03-18T08:28:46.356Z,101191.63
2023-03-18T08:29:50.171Z,101188.44
2023-03-18T08:30:57.087Z,101191.09
2023-03-18T08:32:01.447Z,101201.13
2023-03-18T08:33:05.234Z,101193.47
2023-03-18T08:34:07.746Z,101196.38
2023-03-18T08:35:12.082Z,101197.41
2023-03-18T08:36:14.646Z,101204.03
2023-03-18T08:37:18.216Z,101194.53
2023-03-18T08:38:20.792Z,101196.91
2023-03-18T08:39:24.576Z,101199.56
2023-03-18T08:40:28.600Z,101206.91
2023-03-18T08:41:31.067Z,101201.88
2023-03-18T08:42:34.647Z,101202.94
2023-03-18T08:43:39.042Z,101202.44
2023-03-18T08:44:43.670Z,101197.94
2023-03-18T08:45:47.344Z,101191.63
2023-03-18T08:46:49.830Z,101195.06
2023-03-18T08:47:55.405Z,101203.22
2023-03-18T08:49:01.123Z,101204.81
2023-03-18T08:50:03.877Z,101208.00
2023-03-18T08:51:08.799Z,101205.34
2023-03-18T08:52:11.980Z,101198.50
2023-03-18T08:53:16.084Z,101209.56
2023-03-18T08:54:18.990Z,101203.78
2023-03-18T08:55:22.899Z,101201.63
2023-03-18T08:56:25.480Z,101195.84
2023-03-18T08:57:29.552Z,101193.72
2023-03-18T08:58:32.717Z,101191.88
2023-03-18T08:59:36.811Z,101196.38
2023-03-18T09:00:41.841Z,101186.59
2023-03-18T09:01:45.329Z,101192.16
2023-03-18T09:02:47.887Z,101198.97
2023-03-18T09:03:53.007Z,101198.13
2023-03-18T09:04:55.801Z,101202.91
2023-03-18T09:05:59.683Z,101203.88
2023-03-18T09:07:03.674Z,101198.34
2023-03-18T09:08:07.636Z,101204.44
2023-03-18T09:09:10.187Z,101200.75
2023-03-18T09:10:14.756Z,101198.78
2023-03-18T09:11:18.103Z,101198.53
2023-03-18T09:12:22.315Z,101195.53
2023-03-18T09:13:25.176Z,101194.38
2023-03-18T09:14:28.755Z,101198.41
2023-03-18T09:15:32.297Z,101196.50
2023-03-18T09:16:36.634Z,101193.19
2023-03-18T09:17:56.702Z,101204.09
2023-03-18T09:19:06.533Z,101195.31
2023-03-18T09:20:12.143Z,101195.50
2023-03-18T09:21:15.833Z,101199.50
2023-03-18T09:22:18.651Z,101202.31
2023-03-18T09:23:22.713Z,101210.84
2023-03-18T09:24:25.372Z,101204.38
2023-03-18T09:25:29.400Z,101198.22
2023-03-18T09:26:33.155Z,101205.09
2023-03-18T09:27:36.190Z,101207.53
2023-03-18T09:28:39.780Z,101207.34
2023-03-18T09:29:42.311Z,101203.63
2023-03-18T09:30:45.891Z,101202.59
2023-03-18T09:31:48.399Z,101200.97
2023-03-18T09:32:52.011Z,101204.75
2023-03-18T09:33:54.956Z,101202.66
2023-03-18T09:34:59.732Z,101201.88
2023-03-18T09:36:03.409Z,101204.25
2023-03-18T09:37:07.023Z,101199.81
2023-03-18T09:38:13.217Z,101206.66
2023-03-18T09:39:16.628Z,101198.72
2023-03-18T09:40:25.246Z,101197.66
2023-03-18T09:41:45.054Z,101199.56
2023-03-18T09:42:58.652Z,101204.28
2023-03-18T09:44:16.023Z,101199.78
2023-03-18T09:45:24.824Z,101200.03
2023-03-18T09:46:39.212Z,101198.78
2023-03-18T09:48:30.019Z,101201.50
2023-03-18T09:49:49.744Z,101210.22
2023-03-18T09:51:04.288Z,101212.06
2023-03-18T09:52:18.489Z,101205.97
2023-03-18T09:53:27.665Z,101211.09
2023-03-18T09:54:36.621Z,101214.34
2023-03-18T09:55:46.768Z,101215.69
2023-03-18T09:56:51.266Z,101220.38
2023-03-18T09:57:57.927Z,101218.03
2023-03-18T09:59:03.759Z,101223.03
2023-03-18T10:00:17.858Z,101224.88
2023-03-18T10:01:25.201Z,101223.28
2023-03-18T10:02:35.922Z,101215.91
2023-03-18T10:03:44.219Z,101209.03
2023-03-18T10:04:52.505Z,101206.91
2023-03-18T10:06:01.278Z,101209.56
2023-03-18T10:07:12.233Z,101210.63
2023-03-18T10:08:22.604Z,101217.25
2023-03-18T10:09:29.337Z,101213.50
2023-03-18T10:10:38.816Z,101216.69
2023-03-18T10:11:44.119Z,101215.41
2023-03-18T10:12:51.804Z,101215.66
2023-03-18T10:14:08.889Z,101215.16
2023-03-18T10:15:18.657Z,101210.38
2023-03-18T10:16:26.286Z,101219.63
2023-03-18T10:17:33.555Z,101222.25
2023-03-18T10:18:38.741Z,101210.91
2023-03-18T10:19:47.839Z,101210.63
2023-03-18T10:21:00.910Z,101219.88
2023-03-18T10:22:20.092Z,101214.34
2023-03-18T10:23:33.243Z,101212.75
2023-03-18T10:24:40.726Z,101216.19
2023-03-18T10:25:50.953Z,101219.09
2023-03-18T10:27:04.642Z,101214.59
2023-03-18T10:28:33.617Z,101217.97
2023-03-18T10:29:43.928Z,101210.66
2023-03-18T10:31:00.606Z,101214.59
2023-03-18T10:32:13.332Z,101219.09
2023-03-18T10:33:23.455Z,101222.78
2023-03-18T10:34:35.769Z,101212.25
2023-03-18T10:35:43.915Z,101212.50
2023-03-18T10:36:57.710Z,101214.59
2023-03-18T10:38:04.677Z,101213.00
2023-03-18T10:39:15.536Z,101213.00
2023-03-18T10:40:20.561Z,101208.47
2023-03-18T10:41:31.314Z,101208.72
2023-03-18T10:42:38.315Z,101211.09
2023-03-18T10:43:41.872Z,101209.00
2023-03-18T10:44:45.678Z,101202.91
2023-03-18T10:45:54.875Z,101211.09
2023-03-18T10:47:01.221Z,101211.16
2023-03-18T10:48:11.051Z,101208.47
2023-03-18T10:49:17.660Z,101213.00
2023-03-18T10:50:25.609Z,101217.00
2023-03-18T10:51:35.991Z,101220.69
2023-03-18T10:52:47.518Z,101223.84
2023-03-18T10:53:58.333Z,101224.09
2023-03-18T10:55:00.884Z,101221.72
2023-03-18T10:56:09.221Z,101221.47
2023-03-18T10:57:15.969Z,101213.00
2023-03-18T10:58:20.269Z,101211.16
2023-03-18T10:59:26.012Z,101206.38
2023-03-18T11:00:31.131Z,101211.66
2023-03-18T11:01:37.498Z,101208.22
2023-03-18T11:02:40.733Z,101206.91
2023-03-18T11:03:49.206Z,101206.88
2023-03-18T11:04:54.686Z,101208.25
2023-03-18T11:06:01.471Z,101210.59
2023-03-18T11:07:14.201Z,101210.84
2023-03-18T11:08:37.548Z,101212.69
2023-03-18T11:09:42.497Z,101217.69
2023-03-18T11:10:48.330Z,101207.81
2023-03-18T11:11:56.348Z,101213.56
2023-03-18T11:13:02.662Z,101217.56
2023-03-18T11:14:07.742Z,101210.94
2023-03-18T11:15:14.768Z,101211.47
2023-03-18T11:16:29.951Z,101213.00
2023-03-18T11:17:36.095Z,101210.53
2023-03-18T11:18:39.343Z,101207.66
2023-03-18T11:19:49.036Z,101214.50
2023-03-18T11:21:00.912Z,101208.47
2023-03-18T11:22:12.037Z,101218.88
2023-03-18T11:23:20.724Z,101212.31
2023-03-18T11:24:36.579Z,101216.09
2023-03-18T11:25:40.788Z,101215.81
2023-03-18T11:26:49.028Z,101212.94
2023-03-18T11:27:54.269Z,101216.59
2023-03-18T11:28:58.920Z,101213.94
2023-03-18T11:30:08.155Z,101223.66
2023-03-18T11:31:18.397Z,101216.03
2023-03-18T11:32:25.862Z,101220.19
2023-03-18T11:33:33.536Z,101221.22
2023-03-18T11:34:35.952Z,101227.22
2023-03-18T11:35:47.418Z,101225.06
2023-03-18T11:37:04.707Z,101215.06
2023-03-18T11:38:14.291Z,101216.63
2023-03-18T11:39:19.459Z,101228.00
2023-03-18T11:40:31.539Z,101220.53
2023-03-18T11:41:38.289Z,101220.47
2023-03-18T11:42:42.332Z,101229.34
2023-03-18T11:43:59.591Z,101225.31
2023-03-18T11:45:09.005Z,101229.72
2023-03-18T11:46:13.174Z,101231.38
2023-03-18T11:47:24.404Z,101229.59
2023-03-18T11:48:35.826Z,101232.13
2023-03-18T11:49:39.887Z,101238.50
2023-03-18T11:50:53.971Z,101226.88
2023-03-18T11:52:11.042Z,101224.22
2023-03-18T11:53:22.020Z,101223.06
2023-03-18T11:54:43.487Z,101217.63
2023-03-18T11:55:52.548Z,101216.00
2023-03-18T11:56:58.171Z,101207.09
2023-03-18T11:58:30.785Z,101209.44
2023-03-18T11:59:41.642Z,101204.31
2023-03-18T12:00:50.396Z,101201.16
2023-03-18T12:02:02.544Z,101199.44
2023-03-18T12:03:36.946Z,101202.50
2023-03-18T12:04:53.787Z,101190.19
2023-03-18T12:06:07.098Z,101194.91
2023-03-18T12:07:30.485Z,101200.22
2023-03-18T12:08:45.986Z,101195.97
2023-03-18T12:09:57.086Z,101196.00
2023-03-18T12:11:12.396Z,101191.28
2023-03-18T12:12:32.073Z,101189.44
2023-03-18T12:13:46.726Z,101180.25
2023-03-18T12:14:59.197Z,101175.47
2023-03-18T12:16:13.532Z,101183.47
2023-03-18T12:17:29.290Z,101177.81
2023-03-18T12:18:56.800Z,101167.38
2023-03-18T12:20:15.537Z,101159.28
2023-03-18T12:21:46.838Z,101158.84
2023-03-18T12:23:02.061Z,101159.47
2023-03-18T12:24:28.239Z,101160.69
2023-03-18T12:25:54.688Z,101159.69
2023-03-18T12:27:06.915Z,101159.13
2023-03-18T12:28:20.838Z,101150.78
2023-03-18T12:29:43.775Z,101153.03
2023-03-18T12:31:08.062Z,101149.06